ADDS TAF Board (Experimental) INFO Settings
IDs: Format: Expanded Condensed

KCVG - Cincinnati Intl, KY, US

Issued at 2325 UTC 24 May 2016
Updated at: 0120 UTC 25 May 2016
Time0052Z 25/02Z 25/03Z 25/04Z 25/05Z 25/06Z 25/07Z 25/08Z 25/09Z 25/10Z 25/11Z 25/12Z 25/13Z 25/14Z
Type OBS PRVL PRVL PRVL PRVL PRVL PRVL PRVL PRVL PRVL PRVL PRVL PRVL PRVL
VIS 10 >6 >6 >6 >6 >6 >6 >6 >6 >6 >6 >6 >6 >6
CIG -- -- -- -- 70 70 70 70 70 70 70 50 50 50
Cover FEW FEW FEW FEW BKN BKN BKN BKN BKN BKN BKN BKN BKN BKN
FltCat VFR VFR VFR VFR VFR VFR VFR VFR VFR VFR VFR VFR VFR VFR
WX -- -- -- -- -- -- -- -- -- -- -- VCSH VCSH VCSH
WDir 180 200 200 200 180 180 180 180 180 180 180 200 200 200
WSpd 3 4 4 4 2 2 2 2 2 2 2 6 6 6
WGst -- -- -- -- -- -- -- -- -- -- -- -- -- --
R09/27
XWnd -3 -4 -4 -4 -2 -2 -2 -2 -2 -2 -2 -6 -6 -6
HWnd 0 -1 -1 -1 0 0 0 0 0 0 0 -2 -2 -2
R18/36
XWnd 0 -1 -1 -1 0 0 0 0 0 0 0 -2 -2 -2
HWnd 3 4 4 4 2 2 2 2 2 2 2 6 6 6

NOTE: TEMPO conditions in [brackets]. Keep in mind TEMPO conditions might be better (lower impact) than prevailing conditions.

Raw TAF
KCVG 242325Z 2500/2606 20004KT P6SM FEW250
  FM250500 18002KT P6SM BKN070
  FM251200 20006KT P6SM VCSH BKN050
  FM251800 20009KT P6SM BKN040
  FM260200 17006KT P6SM SCT040


Raw METAR
KCVG 250052Z 18003KT 10SM FEW250 22/11 A3008 RMK AO2 SLP177 T02170106
KCVG 242352Z 20005KT 10SM FEW250 24/10 A3008 RMK AO2 SLP178 T02440100 10278 20244 53004
KCVG 242252Z 21005KT 10SM FEW300 26/08 A3007 RMK AO2 SLP175 T02610078

METAR Board
Radar Display
Forecast Discussion

TAF Board Legend

Potential Impact
Threat None Slight Moderate High
Visibility (sm) ≥5.1 5.1>X≥3 3>X≥1 <1
Ceiling (100 ft) ≥30.1 30.1>X≥10 10>X≥5 <5
Wind Speed (kt) <10 10≤X<20 20≤X<30 ≥30
Wind Gust (kt) <15 15≤X<25 25≤X<35 ≥35
Weather No Wx Reported VCTS,-TS,-FZRA,SN TS,FZRA +TS,+FZRA,+SN